createdAt,value
2023-03-02T00:04:28.574Z,-0.17
2023-03-02T00:09:29.733Z,-0.26
2023-03-02T00:14:31.010Z,-0.22
2023-03-02T00:19:32.280Z,-0.29
2023-03-02T00:24:33.471Z,-0.39
2023-03-02T00:29:34.825Z,-0.45
2023-03-02T00:34:35.996Z,-0.54
2023-03-02T00:39:37.174Z,-0.56
2023-03-02T00:44:38.297Z,-0.55
2023-03-02T00:49:39.493Z,-0.58
2023-03-02T00:54:40.628Z,-0.62
2023-03-02T00:59:41.804Z,-0.77
2023-03-02T01:04:43.082Z,-0.89
2023-03-02T01:09:44.340Z,-0.94
2023-03-02T01:14:45.582Z,-0.96
2023-03-02T01:19:46.886Z,-0.93
2023-03-02T01:24:48.099Z,-0.89
2023-03-02T01:29:50.683Z,-0.89
2023-03-02T01:34:52.075Z,-0.86
2023-03-02T01:39:53.259Z,-0.49
2023-03-02T01:44:57.104Z,-0.22
2023-03-02T01:49:58.312Z,-0.02
2023-03-02T01:54:59.558Z,-0.11
2023-03-02T02:00:00.786Z,-0.47
2023-03-02T02:05:02.041Z,-0.75
2023-03-02T02:10:03.198Z,-0.94
2023-03-02T02:15:04.347Z,-1.07
2023-03-02T02:20:09.099Z,-0.95
2023-03-02T02:25:10.279Z,-1.06
2023-03-02T02:30:11.433Z,-1.12
2023-03-02T02:35:12.632Z,-1.09
2023-03-02T02:40:13.884Z,-1.21
2023-03-02T02:45:15.067Z,-1.23
2023-03-02T02:50:16.830Z,-1.19
2023-03-02T02:55:18.041Z,-1.11
2023-03-02T03:00:19.183Z,-1.09
2023-03-02T03:05:20.401Z,-1.14
2023-03-02T03:10:21.547Z,-1.06
2023-03-02T03:15:22.773Z,-1.04
2023-03-02T03:20:23.945Z,-1.08
2023-03-02T03:25:25.160Z,-1.14
2023-03-02T03:30:26.416Z,-1.32
2023-03-02T03:35:27.642Z,-1.44
2023-03-02T03:40:29.008Z,-1.47
2023-03-02T03:45:30.764Z,-1.52
2023-03-02T03:50:31.961Z,-1.51
2023-03-02T03:55:33.193Z,-1.57
2023-03-02T04:00:34.376Z,-1.29
2023-03-02T04:05:35.606Z,-1.19
2023-03-02T04:10:36.759Z,-1.29
2023-03-02T04:15:38.098Z,-1.45
2023-03-02T04:20:39.429Z,-1.59
2023-03-02T04:25:40.653Z,-1.72
2023-03-02T04:30:41.898Z,-1.76
2023-03-02T04:35:43.156Z,-1.79
2023-03-02T04:40:45.986Z,-1.85
2023-03-02T04:45:47.194Z,-1.97
2023-03-02T04:50:48.329Z,-1.82
2023-03-02T04:55:49.816Z,-1.64
2023-03-02T05:00:51.049Z,-1.41
2023-03-02T05:05:52.220Z,-1.33
2023-03-02T05:10:53.397Z,-1.29
2023-03-02T05:15:57.413Z,-1.34
2023-03-02T05:20:58.696Z,-1.17
2023-03-02T05:25:59.900Z,-1.37
2023-03-02T05:31:01.160Z,-1.45
2023-03-02T05:36:02.381Z,-1.10
2023-03-02T05:41:03.526Z,-0.78
2023-03-02T05:46:04.677Z,-0.58
2023-03-02T05:51:05.849Z,-0.53
2023-03-02T05:56:07.077Z,-0.51
2023-03-02T06:01:08.268Z,-0.60
2023-03-02T06:06:13.660Z,-0.80
2023-03-02T06:11:14.854Z,-0.96
2023-03-02T06:16:16.070Z,-1.09
2023-03-02T06:21:17.279Z,-1.07
2023-03-02T06:26:18.467Z,-0.92
2023-03-02T06:31:19.717Z,-1.09
2023-03-02T06:36:21.028Z,-1.24
2023-03-02T06:41:22.714Z,-1.34
2023-03-02T06:46:24.005Z,-1.39
2023-03-02T06:51:25.279Z,-1.34
2023-03-02T06:56:26.448Z,-1.32
2023-03-02T07:01:28.623Z,-1.20
2023-03-02T07:06:29.821Z,-1.01
2023-03-02T07:11:31.283Z,-1.05
2023-03-02T07:16:32.718Z,-1.06
2023-03-02T07:21:34.163Z,-1.01
2023-03-02T07:26:35.529Z,-0.87
2023-03-02T07:31:36.737Z,-0.54
2023-03-02T07:36:37.962Z,-0.31
2023-03-02T07:41:39.161Z,0.08
2023-03-02T07:46:40.397Z,0.21
2023-03-02T07:51:41.650Z,0.39
2023-03-02T07:56:42.895Z,0.63
2023-03-02T08:01:44.111Z,0.76
2023-03-02T08:06:45.297Z,0.95
2023-03-02T08:11:47.814Z,1.06
2023-03-02T08:16:49.070Z,1.16
2023-03-02T08:21:50.284Z,1.34
2023-03-02T08:26:51.533Z,1.50
2023-03-02T08:31:52.807Z,1.54
2023-03-02T08:36:54.213Z,1.67
2023-03-02T08:41:55.360Z,1.93
2023-03-02T08:46:56.535Z,2.26
2023-03-02T08:51:57.926Z,2.55
2023-03-02T08:56:59.120Z,2.78
2023-03-02T09:02:00.274Z,3.00
2023-03-02T09:07:01.480Z,3.29
2023-03-02T09:12:02.746Z,3.57
2023-03-02T09:17:05.492Z,4.02
2023-03-02T09:22:06.635Z,4.42
2023-03-02T09:27:07.833Z,4.94
2023-03-02T09:32:09.527Z,5.20
2023-03-02T09:37:10.710Z,6.05
2023-03-02T09:42:11.890Z,6.55
2023-03-02T09:47:13.065Z,7.22
2023-03-02T09:52:15.293Z,8.20
2023-03-02T09:57:16.513Z,8.69
2023-03-02T10:02:17.836Z,9.24
2023-03-02T10:07:19.006Z,9.84
2023-03-02T10:12:20.239Z,10.49
2023-03-02T10:17:21.378Z,11.23
2023-03-02T10:22:22.534Z,11.88
2023-03-02T10:27:25.960Z,11.87
2023-03-02T10:32:27.213Z,12.66
2023-03-02T10:37:28.409Z,13.06
2023-03-02T10:42:29.684Z,13.34
2023-03-02T10:47:30.895Z,13.75
2023-03-02T10:52:32.128Z,14.18
2023-03-02T10:57:33.382Z,14.29
2023-03-02T11:02:34.578Z,14.34
2023-03-02T11:07:35.998Z,14.65
2023-03-02T11:12:37.188Z,14.82
2023-03-02T11:17:38.408Z,15.16
2023-03-02T11:22:39.628Z,14.72
2023-03-02T11:27:40.869Z,14.72
2023-03-02T11:32:42.164Z,15.02
2023-03-02T11:37:43.358Z,15.03
2023-03-02T11:42:44.737Z,15.17
2023-03-02T11:47:49.262Z,14.61
2023-03-02T11:52:55.345Z,14.32
2023-03-02T11:57:56.595Z,14.09
2023-03-02T12:02:57.807Z,14.66
2023-03-02T12:07:58.962Z,14.95
2023-03-02T12:13:00.739Z,14.87
2023-03-02T12:18:01.915Z,14.15
2023-03-02T12:23:03.103Z,14.05
2023-03-02T12:28:04.388Z,13.19
2023-03-02T12:33:05.623Z,13.32
2023-03-02T12:38:06.961Z,13.69
2023-03-02T12:43:08.281Z,13.69
2023-03-02T12:48:09.551Z,13.05
2023-03-02T12:53:10.819Z,12.86
2023-03-02T12:58:11.998Z,12.44
2023-03-02T13:03:13.216Z,12.26
2023-03-02T13:08:15.188Z,12.30
2023-03-02T13:13:16.444Z,12.62
2023-03-02T13:18:17.678Z,12.63
2023-03-02T13:23:18.837Z,12.56
2023-03-02T13:28:19.998Z,12.58
2023-03-02T13:33:21.173Z,12.51
2023-03-02T13:38:22.353Z,12.22
2023-03-02T13:43:23.581Z,12.15
2023-03-02T13:48:24.863Z,12.33
2023-03-02T13:53:26.317Z,12.60
2023-03-02T13:58:28.284Z,12.27
2023-03-02T14:03:29.474Z,12.02
2023-03-02T14:08:30.713Z,12.03
2023-03-02T14:13:31.976Z,11.83
2023-03-02T14:18:33.485Z,11.79
2023-03-02T14:23:34.666Z,11.77
2023-03-02T14:28:36.005Z,11.77
2023-03-02T14:33:37.190Z,11.66
2023-03-02T14:38:38.380Z,11.59
2023-03-02T14:43:39.632Z,11.72
2023-03-02T14:48:40.843Z,11.83
2023-03-02T14:53:42.044Z,11.81
2023-03-02T14:58:43.186Z,11.50
2023-03-02T15:03:44.426Z,11.49
2023-03-02T15:08:45.656Z,11.35
2023-03-02T15:13:46.927Z,11.34
2023-03-02T15:18:48.131Z,11.34
2023-03-02T15:23:49.616Z,11.14
2023-03-02T15:28:51.378Z,10.92
2023-03-02T15:33:54.841Z,10.65
2023-03-02T15:38:56.033Z,10.59
2023-03-02T15:43:57.316Z,10.57
2023-03-02T15:48:58.585Z,10.44
2023-03-02T15:53:59.830Z,10.35
2023-03-02T15:59:01.117Z,10.27
2023-03-02T16:04:02.339Z,10.18
2023-03-02T16:09:03.559Z,10.10
2023-03-02T16:14:04.841Z,9.98
2023-03-02T16:19:06.088Z,9.89
2023-03-02T16:24:07.350Z,9.64
2023-03-02T16:29:08.636Z,9.51
2023-03-02T16:34:09.988Z,9.38
2023-03-02T16:39:11.307Z,9.24
2023-03-02T16:44:14.551Z,9.10
2023-03-02T16:49:15.849Z,8.93
2023-03-02T16:54:17.053Z,8.78
2023-03-02T16:59:18.446Z,8.62
2023-03-02T17:04:21.110Z,8.51
2023-03-02T17:09:22.302Z,8.34
2023-03-02T17:14:23.502Z,8.16
2023-03-02T17:19:26.692Z,8.02
2023-03-02T17:24:28.057Z,7.89
2023-03-02T17:29:29.262Z,7.78
2023-03-02T17:34:31.101Z,7.75
2023-03-02T17:39:32.313Z,7.75
2023-03-02T17:44:34.531Z,7.61
2023-03-02T17:49:35.784Z,7.50
2023-03-02T17:54:37.011Z,7.41
2023-03-02T17:59:38.163Z,7.37
2023-03-02T18:04:39.361Z,7.31
2023-03-02T18:09:40.651Z,7.17
2023-03-02T18:14:41.834Z,7.00
2023-03-02T18:19:43.088Z,7.01
2023-03-02T18:24:44.301Z,6.96
2023-03-02T18:29:45.520Z,6.85
2023-03-02T18:34:46.698Z,6.71
2023-03-02T18:39:48.279Z,6.26
2023-03-02T18:44:49.538Z,6.42
2023-03-02T18:49:50.751Z,6.32
2023-03-02T18:54:57.230Z,6.30
2023-03-02T18:59:58.408Z,6.23
2023-03-02T19:04:59.644Z,6.13
2023-03-02T19:10:00.848Z,5.99
2023-03-02T19:15:02.145Z,5.86
2023-03-02T19:20:03.326Z,5.76
2023-03-02T19:25:04.502Z,5.61
2023-03-02T19:30:05.811Z,5.53
2023-03-02T19:35:07.007Z,5.37
2023-03-02T19:40:08.158Z,5.24
2023-03-02T19:45:12.439Z,5.15
2023-03-02T19:50:13.688Z,5.05
2023-03-02T19:55:14.975Z,4.95
2023-03-02T20:00:16.190Z,4.90
2023-03-02T20:05:17.377Z,4.79
2023-03-02T20:10:18.567Z,4.69
2023-03-02T20:15:19.796Z,4.66
2023-03-02T20:20:21.013Z,4.56
2023-03-02T20:25:22.222Z,4.52
2023-03-02T20:30:23.502Z,4.46
2023-03-02T20:35:24.655Z,4.33
2023-03-02T20:40:26.018Z,4.29
2023-03-02T20:45:27.408Z,4.23
2023-03-02T20:50:28.928Z,4.13
2023-03-02T20:55:30.241Z,4.04
2023-03-02T21:00:31.667Z,3.97
2023-03-02T21:05:32.800Z,3.91
2023-03-02T21:10:34.131Z,3.86
2023-03-02T21:15:35.465Z,3.72
2023-03-02T21:20:36.829Z,3.65
2023-03-02T21:25:39.475Z,3.57
2023-03-02T21:30:41.733Z,3.66
2023-03-02T21:35:42.865Z,3.62
2023-03-02T21:40:45.896Z,3.52
2023-03-02T21:45:47.173Z,3.38
2023-03-02T21:50:48.390Z,3.19
2023-03-02T21:55:53.507Z,3.12
2023-03-02T22:00:54.638Z,3.18
2023-03-02T22:05:55.930Z,3.14
2023-03-02T22:10:57.144Z,3.06
2023-03-02T22:15:58.409Z,2.75
2023-03-02T22:20:59.673Z,2.48
2023-03-02T22:26:00.917Z,2.42
2023-03-02T22:31:02.111Z,2.39
2023-03-02T22:36:03.417Z,2.24
2023-03-02T22:41:04.792Z,2.19
2023-03-02T22:46:05.953Z,2.26
2023-03-02T22:51:07.089Z,2.18
2023-03-02T22:56:08.277Z,2.18
2023-03-02T23:01:09.563Z,2.13
2023-03-02T23:06:10.715Z,1.98
2023-03-02T23:11:11.923Z,1.78
2023-03-02T23:16:13.156Z,1.69
2023-03-02T23:21:14.340Z,1.58
2023-03-02T23:26:15.678Z,1.47
2023-03-02T23:31:18.305Z,1.35
2023-03-02T23:36:20.941Z,1.23
2023-03-02T23:41:22.176Z,1.17
2023-03-02T23:46:23.371Z,1.13
2023-03-02T23:51:25.427Z,1.16
2023-03-02T23:56:26.583Z,1.13
